NCAR-RAP Real-Time Weather Data

Output produced by METARs form (06 May 2021  16:36 UTC)
found at http://weather.rap.ucar.edu/surface/
 
KMHT 061553Z 32016G25KT 10SM BKN050 14/M01 A2983 RMK AO2 PK WND 34027/1512 SLP116 T01441011
KMHT 061453Z 30016G21KT 10SM BKN049 13/00 A2984 RMK AO2 PK WND 32028/1355 SLP117 T01280000 51019
KMHT 061353Z 32013G23KT 10SM BKN041 13/02 A2983 RMK AO2 SLP116 T01280017
KMHT 061253Z 31016G26KT 10SM BKN040 12/02 A2982 RMK AO2 PK WND 31026/1253 SLP112 T01170017
KMHT 061153Z 32014G23KT 10SM SCT060 11/03 A2978 RMK AO2 SLP099 70020 T01110033 10111 20094 51021
KMHT 061053Z VRB05KT 10SM FEW060 10/04 A2976 RMK AO2 SLP092 T01000044
KMHT 060953Z 32007KT 10SM FEW040 09/05 A2974 RMK AO2 SLP085 T00940050
KMHT 060853Z 00000KT 10SM SCT039 SCT080 09/06 A2972 RMK AO2 SLP077 T00940056 52009
KMHT 060753Z 31006KT 10SM SCT080 10/07 A2971 RMK AO2 SLP075 T01000067
KMHT 060653Z 31006KT 10SM OVC080 11/08 A2970 RMK AO2 SLP070 T01060078
KMHT 060553Z 20003KT 10SM FEW035 OVC075 09/08 A2969 RMK AO2 RAE0458 SLP068 P0000 60003 T00940083 10100 20089 56006
KMHT 060453Z 19003KT 10SM -RA FEW006 SCT035 OVC090 09/08 A2969 RMK AO2 SLP068 P0000 T00940078 401110078
KMHT 060353Z 00000KT 10SM -RA SCT006 BKN042 OVC060 09/08 A2970 RMK AO2 RAE14B52 SLP071 P0001 T00940078
KMHT 060324Z 00000KT 10SM BKN008 BKN031 OVC075 10/08 A2970 RMK AO2 RAE14 P0001 T01000078
KMHT 060253Z 00000KT 7SM -RA FEW006 BKN011 OVC040 10/08 A2971 RMK AO2 RAB22 SLP074 P0001 60002 T01000078 50009
KMHT 060213Z 00000KT 10SM FEW006 BKN016 OVC046 09/08 A2972 RMK AO2 T00940078
KMHT 060153Z 00000KT 10SM BKN006 OVC027 09/08 A2971 RMK AO2 SLP075 T00940078
KMHT 060053Z 00000KT 10SM BKN007 BKN030 OVC055 09/08 A2970 RMK AO2 RAE49 SLP072 P0001 T00940078